HE44 weather

Al Ismailiyah Airport
Ismailia, Ismailia Governorate, Egypt

Public forecast

Using degrees Celsius for public forecast. Weather courtesy of forecast.io.

METAR (pilot weather report)

Closest report is Port Said Airport, 40.9 nm (75.7 km) N. Retrieved 2019/05/24 06:00 UTC (19 minutes ago):

HEPS 240600Z 20010KT CAVOK 29/18 Q1007 NOSIG

TAF (pilot weather forecast)

Closest forecast is Port Said Airport, 40.9 nm (75.7 km) N. Retrieved 2019/05/24 06:18 UTC (38 seconds ago):

TAF HEPS 240500Z 2406/2512 30010KT CAVOK TEMPO 2412/2418 32015G28KT